Time;durP1;ratioP1;P1;durP2;ratioP2;P2;SDS_P1;SDS_P2;PMS_P1;PMS_P2;Temp;Humidity;BMP_temperature;BMP_pressure;BME280_temperature;BME280_humidity;BME280_pressure;Samples;Min_cycle;Max_cycle;Signal;HPM_P1;HPM_P2
2023/04/13 00:01:06;;;;;;;0.88;0.47;;;11.80;99.90;;;;;;5056151;28;20108;-40
2023/04/13 00:03:32;;;;;;;0.57;0.15;;;11.80;99.90;;;;;;5056057;28;20063;-37
2023/04/13 00:05:57;;;;;;;0.43;0.28;;;11.80;99.90;;;;;;5055758;28;20048;-38
2023/04/13 00:08:23;;;;;;;0.43;0.25;;;11.80;99.90;;;;;;5054245;28;20035;-39
2023/04/13 00:10:49;;;;;;;2.67;0.40;;;11.80;99.90;;;;;;5054326;28;20029;-38
2023/04/13 00:13:15;;;;;;;0.52;0.30;;;11.80;99.90;;;;;;5055205;28;20094;-39
2023/04/13 00:15:42;;;;;;;2.05;0.35;;;11.80;99.90;;;;;;5055869;28;20032;-36
2023/04/13 00:18:09;;;;;;;0.40;0.32;;;11.80;99.90;;;;;;5054504;28;20039;-40
2023/04/13 00:20:36;;;;;;;0.80;0.40;;;11.70;99.90;;;;;;5056183;28;20513;-37
2023/04/13 00:23:02;;;;;;;0.82;0.38;;;11.80;99.90;;;;;;5055373;28;20483;-36
2023/04/13 00:25:28;;;;;;;1.85;0.40;;;11.80;99.90;;;;;;5056272;28;20037;-37
2023/04/13 00:27:54;;;;;;;0.40;0.30;;;11.80;99.90;;;;;;5053641;28;20029;-36
2023/04/13 00:30:21;;;;;;;1.13;0.30;;;11.80;99.90;;;;;;5055485;28;20025;-36
2023/04/13 00:32:47;;;;;;;2.55;0.30;;;11.70;99.90;;;;;;5054615;28;20025;-38
2023/04/13 00:35:17;;;;;;;2.05;0.65;;;11.70;99.90;;;;;;5054203;28;20383;-38
2023/04/13 00:37:46;;;;;;;1.98;0.50;;;11.70;99.90;;;;;;5053288;28;20013;-39
2023/04/13 00:40:14;;;;;;;1.38;0.40;;;11.70;99.90;;;;;;5054127;28;20056;-40
2023/04/13 00:42:45;;;;;;;0.60;0.22;;;11.80;99.90;;;;;;5053619;28;20017;-36
2023/04/13 00:45:12;;;;;;;0.75;0.30;;;11.70;99.90;;;;;;5054951;28;20031;-36
2023/04/13 00:47:40;;;;;;;2.00;0.40;;;11.70;99.90;;;;;;5056059;28;20521;-37
2023/04/13 00:50:07;;;;;;;1.55;0.60;;;11.70;99.90;;;;;;5055378;28;20029;-36
2023/04/13 00:52:36;;;;;;;1.27;0.47;;;11.70;99.90;;;;;;5053874;28;20429;-38
2023/04/13 00:55:03;;;;;;;1.70;0.50;;;11.70;99.90;;;;;;5054724;28;20017;-36
2023/04/13 00:57:31;;;;;;;0.82;0.40;;;11.70;99.90;;;;;;5054128;28;20032;-36
2023/04/13 00:59:57;;;;;;;1.83;0.50;;;11.70;99.90;;;;;;5055152;28;20028;-38
2023/04/13 01:02:25;;;;;;;0.70;0.40;;;11.70;99.90;;;;;;5054701;28;20041;-41
2023/04/13 01:04:53;;;;;;;3.15;0.50;;;11.70;99.90;;;;;;5054869;28;20055;-38
2023/04/13 01:07:29;;;;;;;1.48;0.28;;;11.70;99.90;;;;;;5053502;28;20100;-38
2023/04/13 01:10:04;;;;;;;2.67;0.57;;;11.70;99.90;;;;;;5055225;28;20021;-36
2023/04/13 01:12:32;;;;;;;;;;;11.70;99.90;;;;;;5055733;28;20402;-38
2023/04/13 01:15:20;;;;;;;1.08;0.35;;;11.60;99.90;;;;;;5054481;28;20395;-35
2023/04/13 01:17:53;;;;;;;1.75;0.65;;;11.70;99.90;;;;;;5054769;28;20069;-38
2023/04/13 01:20:19;;;;;;;1.00;0.50;;;11.60;99.90;;;;;;5054157;28;20025;-35
2023/04/13 01:23:08;;;;;;;0.80;0.40;;;11.60;99.90;;;;;;5053610;28;20033;-37
2023/04/13 01:25:46;;;;;;;1.05;0.25;;;11.60;99.90;;;;;;5052751;28;20029;-39
2023/04/13 01:28:14;;;;;;;2.55;0.50;;;11.60;99.90;;;;;;5053814;28;20032;-37
2023/04/13 01:30:41;;;;;;;1.23;0.50;;;11.60;99.90;;;;;;5053397;28;20028;-38
2023/04/13 01:33:08;;;;;;;1.35;0.50;;;11.60;99.90;;;;;;5054105;28;20021;-38
2023/04/13 01:35:35;;;;;;;1.38;0.40;;;11.60;99.90;;;;;;5053910;28;20082;-36
2023/04/13 01:38:03;;;;;;;1.83;0.40;;;11.60;99.90;;;;;;5053869;28;20537;-36
2023/04/13 01:40:29;;;;;;;1.15;0.40;;;11.60;99.90;;;;;;5053685;28;20108;-36
2023/04/13 01:42:57;;;;;;;1.10;0.50;;;11.60;99.90;;;;;;5051962;28;20052;-37
2023/04/13 01:45:35;;;;;;;0.65;0.40;;;11.60;99.90;;;;;;5053402;28;20040;-36
2023/04/13 01:48:07;;;;;;;3.30;0.50;;;11.60;99.90;;;;;;5052077;28;20029;-35
2023/04/13 01:50:40;;;;;;;2.35;0.70;;;11.60;99.90;;;;;;5053624;28;20029;-39
2023/04/13 01:53:10;;;;;;;1.33;0.60;;;11.50;99.90;;;;;;5052530;28;20025;-38
2023/04/13 01:55:40;;;;;;;1.33;0.50;;;11.50;99.90;;;;;;5053009;28;20017;-39
2023/04/13 01:58:11;;;;;;;2.75;0.75;;;11.50;99.90;;;;;;5053501;28;20021;-40
2023/04/13 02:00:38;;;;;;;1.95;0.70;;;11.50;99.90;;;;;;5053540;28;20078;-38
2023/04/13 02:03:05;;;;;;;2.20;0.45;;;11.50;99.90;;;;;;5054114;28;20560;-39
2023/04/13 02:05:32;;;;;;;2.13;0.50;;;11.50;99.90;;;;;;5053718;28;20119;-38
2023/04/13 02:07:58;;;;;;;2.30;0.50;;;11.50;99.90;;;;;;5053277;28;20017;-36
2023/04/13 02:10:25;;;;;;;3.30;0.50;;;11.50;99.90;;;;;;5053250;28;20031;-36
2023/04/13 02:12:51;;;;;;;2.20;0.50;;;11.40;99.90;;;;;;5051968;28;20025;-37
2023/04/13 02:15:17;;;;;;;2.17;0.70;;;11.40;99.90;;;;;;5053707;28;20029;-37
2023/04/13 02:17:43;;;;;;;1.13;0.50;;;11.40;99.90;;;;;;5052049;28;20028;-38
2023/04/13 02:20:12;;;;;;;1.13;0.85;;;11.40;99.90;;;;;;5051635;28;20033;-38
2023/04/13 02:22:40;;;;;;;2.20;0.50;;;11.50;99.90;;;;;;5051773;28;20116;-39
2023/04/13 02:25:07;;;;;;;2.75;0.98;;;11.50;99.90;;;;;;5052653;28;20120;-38
2023/04/13 02:27:34;;;;;;;2.05;0.60;;;11.50;99.90;;;;;;5052829;28;20384;-37
2023/04/13 02:30:01;;;;;;;0.43;0.38;;;11.50;99.90;;;;;;5051924;28;20033;-37
2023/04/13 02:32:28;;;;;;;1.17;0.73;;;11.40;99.90;;;;;;5052385;28;20017;-36
2023/04/13 02:34:54;;;;;;;2.85;0.98;;;11.40;99.90;;;;;;5052667;28;20017;-36
2023/04/13 02:37:19;;;;;;;2.05;0.60;;;11.40;99.90;;;;;;5051955;28;20432;-39
2023/04/13 02:39:45;;;;;;;2.50;0.70;;;11.40;99.90;;;;;;5052649;28;20036;-36
2023/04/13 02:42:11;;;;;;;1.15;0.50;;;11.40;99.90;;;;;;5052823;28;20441;-36
2023/04/13 02:44:37;;;;;;;2.05;0.80;;;11.40;99.90;;;;;;5051411;28;20395;-36
2023/04/13 02:47:03;;;;;;;1.40;0.50;;;11.40;99.90;;;;;;5052068;28;20391;-36
2023/04/13 02:49:29;;;;;;;1.25;0.50;;;11.40;99.90;;;;;;5051956;28;20075;-36
2023/04/13 02:51:55;;;;;;;1.15;0.40;;;11.40;99.90;;;;;;5051522;28;20491;-38
2023/04/13 02:54:20;;;;;;;2.58;0.60;;;11.40;99.90;;;;;;5051705;28;20052;-36
2023/04/13 02:56:46;;;;;;;3.42;0.60;;;11.40;99.90;;;;;;5051621;28;20063;-38
2023/04/13 02:59:13;;;;;;;1.83;0.75;;;11.40;99.90;;;;;;5052570;28;20052;-38
2023/04/13 03:01:40;;;;;;;1.98;0.70;;;11.40;99.90;;;;;;5052610;28;20023;-37
2023/04/13 03:04:07;;;;;;;1.92;0.65;;;11.40;99.90;;;;;;5051799;28;20394;-35
2023/04/13 03:06:33;;;;;;;2.78;0.70;;;11.40;99.90;;;;;;5050906;28;20463;-39
2023/04/13 03:09:00;;;;;;;1.58;0.63;;;11.30;99.90;;;;;;5050943;28;20067;-36
2023/04/13 03:11:26;;;;;;;1.17;0.40;;;11.30;99.90;;;;;;5051754;28;20021;-35
2023/04/13 03:13:52;;;;;;;0.60;0.40;;;11.30;99.90;;;;;;5052831;28;20029;-39
2023/04/13 03:16:21;;;;;;;1.77;0.57;;;11.30;99.90;;;;;;5051886;28;20368;-36
2023/04/13 03:18:47;;;;;;;1.13;0.85;;;11.30;99.90;;;;;;5051182;28;20170;-41
2023/04/13 03:21:13;;;;;;;1.13;0.50;;;11.30;99.90;;;;;;5052455;28;20100;-38
2023/04/13 03:23:38;;;;;;;2.13;0.65;;;11.30;99.90;;;;;;5051551;28;20090;-36
2023/04/13 03:26:04;;;;;;;2.85;0.63;;;11.30;99.90;;;;;;5052061;28;20475;-38
2023/04/13 03:28:30;;;;;;;1.00;0.40;;;11.30;99.90;;;;;;5052592;28;20021;-37
2023/04/13 03:30:56;;;;;;;1.45;0.55;;;11.30;99.90;;;;;;5052226;28;20122;-37
2023/04/13 03:33:21;;;;;;;0.57;0.45;;;11.30;99.90;;;;;;5050806;28;20501;-37
2023/04/13 03:35:47;;;;;;;2.55;0.52;;;11.30;99.90;;;;;;5050465;28;20029;-38
2023/04/13 03:38:13;;;;;;;2.53;0.60;;;11.30;99.90;;;;;;5050742;28;20079;-36
2023/04/13 03:40:38;;;;;;;2.42;0.70;;;11.30;99.90;;;;;;5051197;28;20033;-38
2023/04/13 03:43:04;;;;;;;1.08;0.77;;;11.30;99.90;;;;;;5050882;28;20445;-38
2023/04/13 03:45:29;;;;;;;2.28;0.50;;;11.30;99.90;;;;;;5052070;28;20031;-35
2023/04/13 03:47:55;;;;;;;1.00;0.50;;;11.30;99.90;;;;;;5052626;28;20107;-35
2023/04/13 03:50:21;;;;;;;1.10;0.60;;;11.30;99.90;;;;;;5050647;28;20395;-35
2023/04/13 03:52:47;;;;;;;1.55;0.60;;;11.20;99.90;;;;;;5051883;28;20491;-39
2023/04/13 03:55:12;;;;;;;2.75;0.80;;;11.20;99.90;;;;;;5051816;28;20490;-35
2023/04/13 03:57:38;;;;;;;1.02;0.55;;;11.30;99.90;;;;;;5050998;28;20104;-38
2023/04/13 04:00:09;;;;;;;1.58;0.60;;;11.30;99.90;;;;;;5052655;28;20104;-38
2023/04/13 04:02:36;;;;;;;1.63;0.77;;;11.30;99.90;;;;;;5051515;28;20029;-38
2023/04/13 04:05:02;;;;;;;2.03;0.75;;;11.30;99.90;;;;;;5051796;28;20387;-36
2023/04/13 04:07:29;;;;;;;1.20;0.60;;;11.30;99.90;;;;;;5050682;28;20028;-36
2023/04/13 04:09:55;;;;;;;2.60;0.75;;;11.30;99.90;;;;;;5051183;28;20029;-36
2023/04/13 04:12:20;;;;;;;2.92;0.55;;;11.30;99.90;;;;;;5050226;28;20087;-35
2023/04/13 04:14:46;;;;;;;2.00;0.80;;;11.30;99.90;;;;;;5050176;28;20025;-38
2023/04/13 04:17:11;;;;;;;1.38;0.75;;;11.20;99.90;;;;;;5050214;28;20025;-37
2023/04/13 04:19:37;;;;;;;1.35;0.63;;;11.30;99.90;;;;;;5050472;28;20066;-36
2023/04/13 04:22:03;;;;;;;1.90;0.77;;;11.20;99.90;;;;;;5051087;28;20427;-35
2023/04/13 04:24:29;;;;;;;1.80;0.60;;;11.20;99.90;;;;;;5050720;28;20029;-39
2023/04/13 04:26:56;;;;;;;2.47;0.80;;;11.20;99.90;;;;;;5051298;28;20025;-38
2023/04/13 04:29:32;;;;;;;3.10;0.60;;;11.20;99.90;;;;;;5051126;28;20100;-38
2023/04/13 04:32:00;;;;;;;2.22;0.63;;;11.20;99.90;;;;;;5051933;28;20025;-40
2023/04/13 04:34:26;;;;;;;3.08;0.80;;;11.20;99.90;;;;;;5050860;28;20017;-36
2023/04/13 04:36:52;;;;;;;2.95;0.75;;;11.20;99.90;;;;;;5054028;28;20028;-38
2023/04/13 04:39:22;;;;;;;3.78;0.98;;;11.20;99.90;;;;;;5054567;28;20410;-36
2023/04/13 04:41:53;;;;;;;1.23;0.68;;;11.20;99.90;;;;;;5054941;28;20033;-37
2023/04/13 04:44:23;;;;;;;1.67;0.77;;;11.20;99.90;;;;;;5053353;28;20025;-35
2023/04/13 04:46:51;;;;;;;2.05;0.77;;;11.20;99.90;;;;;;5053021;28;20025;-38
2023/04/13 04:49:20;;;;;;;1.83;0.60;;;11.20;99.90;;;;;;5053868;28;20029;-36
2023/04/13 04:51:50;;;;;;;1.65;0.57;;;11.20;99.90;;;;;;5054405;28;20040;-39
2023/04/13 04:54:17;;;;;;;3.85;0.65;;;11.20;99.90;;;;;;5054755;28;20087;-38
2023/04/13 04:56:43;;;;;;;2.13;0.90;;;11.20;99.90;;;;;;5053662;28;20021;-36
2023/04/13 04:59:09;;;;;;;4.40;0.80;;;11.20;99.90;;;;;;5053287;28;20017;-36
2023/04/13 05:01:35;;;;;;;1.88;0.63;;;11.20;99.90;;;;;;5054386;28;20088;-38
2023/04/13 05:04:02;;;;;;;3.85;0.80;;;11.20;99.90;;;;;;5054287;28;20155;-38
2023/04/13 05:06:32;;;;;;;4.40;0.70;;;11.20;99.90;;;;;;5054126;28;20032;-35
2023/04/13 05:08:58;;;;;;;2.53;0.82;;;11.20;99.90;;;;;;5054511;28;20017;-36
2023/04/13 05:11:25;;;;;;;1.90;0.68;;;11.20;99.90;;;;;;5053458;28;20043;-36
2023/04/13 05:13:51;;;;;;;2.65;0.85;;;11.20;99.90;;;;;;5054561;28;20013;-38
2023/04/13 05:16:17;;;;;;;0.95;0.52;;;11.20;99.90;;;;;;5054134;28;20448;-38
2023/04/13 05:18:45;;;;;;;3.08;0.80;;;11.20;99.90;;;;;;5053824;28;20027;-35
2023/04/13 05:21:12;;;;;;;4.22;0.65;;;11.20;99.90;;;;;;5054296;28;20033;-35
2023/04/13 05:23:39;;;;;;;3.55;1.05;;;11.10;99.90;;;;;;5052989;28;20032;-37
2023/04/13 05:26:05;;;;;;;2.92;0.80;;;11.10;99.90;;;;;;5053311;28;20143;-42
2023/04/13 05:28:33;;;;;;;3.95;1.10;;;11.20;99.90;;;;;;5053975;28;20048;-39
2023/04/13 05:31:03;;;;;;;3.42;0.90;;;11.10;99.90;;;;;;5054111;28;20040;-38
2023/04/13 05:33:29;;;;;;;2.75;1.08;;;11.10;99.90;;;;;;5053569;28;20036;-37
2023/04/13 05:35:58;;;;;;;5.20;1.13;;;11.20;99.90;;;;;;5052320;28;20021;-35
2023/04/13 05:38:23;;;;;;;1.63;0.80;;;11.20;99.90;;;;;;5052840;28;20451;-37
2023/04/13 05:40:49;;;;;;;2.88;0.90;;;11.10;99.90;;;;;;5053213;28;20096;-35
2023/04/13 05:43:15;;;;;;;2.92;0.80;;;11.10;99.90;;;;;;5053527;28;20422;-38
2023/04/13 05:45:42;;;;;;;3.00;0.85;;;11.10;99.90;;;;;;5053534;28;20029;-36
2023/04/13 05:48:07;;;;;;;4.07;0.82;;;11.10;99.90;;;;;;5054017;28;20023;-36
2023/04/13 05:50:33;;;;;;;2.75;0.80;;;11.10;99.90;;;;;;5052572;28;20036;-38
2023/04/13 05:52:59;;;;;;;0.80;0.60;;;11.20;99.90;;;;;;5053787;28;20454;-40
2023/04/13 05:55:26;;;;;;;3.53;0.90;;;11.10;99.90;;;;;;5052939;28;20061;-38
2023/04/13 05:57:52;;;;;;;2.85;0.93;;;11.10;99.90;;;;;;5053603;28;20103;-36
2023/04/13 06:00:20;;;;;;;3.92;0.90;;;11.10;99.90;;;;;;5054550;28;20191;-38
2023/04/13 06:02:48;;;;;;;2.42;0.85;;;11.10;99.90;;;;;;5052056;28;20579;-38
2023/04/13 06:05:16;;;;;;;3.55;0.95;;;11.20;99.90;;;;;;5052816;28;20052;-41
2023/04/13 06:07:45;;;;;;;5.38;1.10;;;11.20;99.90;;;;;;5051458;28;20021;-37
2023/04/13 06:10:15;;;;;;;3.17;0.88;;;11.10;99.90;;;;;;5052117;28;20509;-36
2023/04/13 06:12:41;;;;;;;2.85;0.80;;;11.10;99.90;;;;;;5052741;28;20108;-35
2023/04/13 06:15:07;;;;;;;4.18;1.38;;;11.10;99.90;;;;;;5053727;28;20059;-38
2023/04/13 06:17:33;;;;;;;2.05;0.70;;;11.10;99.90;;;;;;5052441;28;20024;-38
2023/04/13 06:19:58;;;;;;;4.38;0.90;;;11.10;99.90;;;;;;5051820;28;20029;-38
2023/04/13 06:22:24;;;;;;;5.68;0.90;;;11.10;99.90;;;;;;5051609;28;20053;-38
2023/04/13 06:24:50;;;;;;;2.88;0.88;;;11.10;99.90;;;;;;5051609;28;20125;-38
2023/04/13 06:27:17;;;;;;;4.00;0.93;;;11.10;99.90;;;;;;5051196;28;20450;-39
2023/04/13 06:29:43;;;;;;;5.70;0.90;;;11.10;99.90;;;;;;5051321;28;20021;-36
2023/04/13 06:32:10;;;;;;;4.78;1.20;;;11.10;99.90;;;;;;5051494;28;20483;-36
2023/04/13 06:34:35;;;;;;;4.57;1.15;;;11.10;99.90;;;;;;5050124;28;20021;-37
2023/04/13 06:37:01;;;;;;;2.78;0.80;;;11.10;99.90;;;;;;5050831;28;20021;-36
2023/04/13 06:39:27;;;;;;;3.97;0.82;;;11.10;99.90;;;;;;5052974;28;20027;-38
2023/04/13 06:41:53;;;;;;;3.25;0.98;;;11.10;99.90;;;;;;5052617;28;20108;-37
2023/04/13 06:44:18;;;;;;;6.18;1.00;;;11.10;99.90;;;;;;5051226;28;20395;-38
2023/04/13 06:46:44;;;;;;;4.78;1.15;;;11.10;99.90;;;;;;5051921;28;20032;-38
2023/04/13 06:49:12;;;;;;;4.00;1.08;;;11.20;99.90;;;;;;5051237;28;20123;-36
2023/04/13 06:51:37;;;;;;;6.03;1.10;;;11.20;99.90;;;;;;5051173;28;20483;-36
2023/04/13 06:54:03;;;;;;;2.85;0.88;;;11.20;99.90;;;;;;5052429;28;20159;-38
2023/04/13 06:56:29;;;;;;;4.28;0.82;;;11.20;99.90;;;;;;5052389;28;20025;-38
2023/04/13 06:59:00;;;;;;;2.95;0.95;;;11.20;99.90;;;;;;5051189;28;20017;-35
2023/04/13 07:01:26;;;;;;;9.20;1.20;;;11.20;99.90;;;;;;5051823;28;20035;-37
2023/04/13 07:03:52;;;;;;;3.28;1.02;;;11.20;99.90;;;;;;5052862;28;20403;-37
2023/04/13 07:06:20;;;;;;;4.45;1.30;;;11.20;99.90;;;;;;5052094;28;20032;-38
2023/04/13 07:08:46;;;;;;;3.40;1.30;;;11.20;99.90;;;;;;5052111;28;20438;-36
2023/04/13 07:11:12;;;;;;;7.15;1.48;;;11.20;99.90;;;;;;5051602;28;20024;-36
2023/04/13 07:13:38;;;;;;;5.18;1.20;;;11.20;99.90;;;;;;5050998;28;20044;-38
2023/04/13 07:16:04;;;;;;;4.00;1.33;;;11.20;99.90;;;;;;5050441;28;20359;-36
2023/04/13 07:18:30;;;;;;;3.03;0.77;;;11.20;99.90;;;;;;5050858;28;20463;-37
2023/04/13 07:20:56;;;;;;;4.07;0.93;;;11.20;99.90;;;;;;5051139;28;20044;-35
2023/04/13 07:23:22;;;;;;;3.67;0.95;;;11.20;99.90;;;;;;5050846;28;20025;-38
2023/04/13 07:25:48;;;;;;;3.90;1.00;;;11.20;99.90;;;;;;5050411;28;20029;-37
2023/04/13 07:28:14;;;;;;;4.95;1.17;;;11.20;99.90;;;;;;5051867;28;20398;-38
2023/04/13 07:30:43;;;;;;;2.65;0.80;;;11.20;99.90;;;;;;5050765;28;20024;-38
2023/04/13 07:33:09;;;;;;;5.38;1.00;;;11.30;99.90;;;;;;5051492;28;20588;-38
2023/04/13 07:35:39;;;;;;;5.32;1.23;;;11.30;99.90;;;;;;5052177;28;20021;-36
2023/04/13 07:38:05;;;;;;;3.35;0.90;;;11.30;99.90;;;;;;5050629;28;20017;-37
2023/04/13 07:40:30;;;;;;;4.25;1.05;;;11.30;99.90;;;;;;5050681;28;20025;-36
2023/04/13 07:42:56;;;;;;;3.85;1.02;;;11.30;99.90;;;;;;5050746;28;20383;-38
2023/04/13 07:45:22;;;;;;;5.75;1.42;;;11.30;99.90;;;;;;5050655;28;20021;-39
2023/04/13 07:47:48;;;;;;;4.75;1.10;;;11.30;99.90;;;;;;5050220;28;20154;-41
2023/04/13 07:50:15;;;;;;;5.22;1.20;;;11.30;99.90;;;;;;5050644;28;20029;-37
2023/04/13 07:52:41;;;;;;;5.40;1.20;;;11.30;99.90;;;;;;5050662;28;20025;-38
2023/04/13 07:55:07;;;;;;;8.75;0.88;;;11.30;99.90;;;;;;5050597;28;20067;-39
2023/04/13 07:57:33;;;;;;;4.15;1.40;;;11.30;99.90;;;;;;5050094;28;20021;-39
2023/04/13 07:59:59;;;;;;;3.22;1.10;;;11.30;99.90;;;;;;5050615;28;20025;-38
2023/04/13 08:02:25;;;;;;;6.03;0.93;;;11.30;99.90;;;;;;5050272;28;20483;-38
2023/04/13 08:04:54;;;;;;;5.90;1.20;;;11.40;99.90;;;;;;5050619;28;20028;-38
2023/04/13 08:07:21;;;;;;;4.18;1.10;;;11.40;99.90;;;;;;5049892;28;20082;-38
2023/04/13 08:09:48;;;;;;;4.78;1.10;;;11.30;99.90;;;;;;5052043;28;20483;-35
2023/04/13 08:12:15;;;;;;;7.45;1.35;;;11.40;99.90;;;;;;5054324;28;20025;-36
2023/04/13 08:14:41;;;;;;;6.95;1.20;;;11.40;99.90;;;;;;5054140;28;20051;-36
2023/04/13 08:17:06;;;;;;;4.85;1.17;;;11.40;99.90;;;;;;5053608;28;20498;-38
2023/04/13 08:19:32;;;;;;;3.20;1.13;;;11.30;99.90;;;;;;5054092;28;20029;-38
2023/04/13 08:21:58;;;;;;;3.05;0.93;;;11.40;99.90;;;;;;5054094;28;20700;-39
2023/04/13 08:24:24;;;;;;;3.80;0.68;;;11.40;99.90;;;;;;5053951;28;20021;-39
2023/04/13 08:26:54;;;;;;;3.33;1.08;;;11.40;99.90;;;;;;5055428;28;20029;-35
2023/04/13 08:29:20;;;;;;;4.18;0.90;;;11.40;99.90;;;;;;5054567;28;20503;-38
2023/04/13 08:31:46;;;;;;;5.30;1.40;;;11.40;99.90;;;;;;5053870;28;20039;-38
2023/04/13 08:34:13;;;;;;;5.88;1.23;;;11.40;99.90;;;;;;5054540;28;20021;-38
2023/04/13 08:36:39;;;;;;;3.65;1.25;;;11.40;99.90;;;;;;5056077;28;20025;-38
2023/04/13 08:39:08;;;;;;;2.92;1.30;;;11.40;99.90;;;;;;5054125;28;20025;-36
2023/04/13 08:41:39;;;;;;;3.33;1.00;;;11.50;99.90;;;;;;5053845;28;20398;-36
2023/04/13 08:44:07;;;;;;;4.28;0.93;;;11.50;99.90;;;;;;5053497;28;20032;-35
2023/04/13 08:46:33;;;;;;;6.38;1.10;;;11.50;99.90;;;;;;5055916;28;20104;-37
2023/04/13 08:49:00;;;;;;;4.80;1.23;;;11.40;99.90;;;;;;5055087;28;20033;-37
2023/04/13 08:51:28;;;;;;;4.57;1.38;;;11.50;99.90;;;;;;5054805;28;20552;-38
2023/04/13 08:53:57;;;;;;;4.38;1.00;;;11.50;99.90;;;;;;5054748;28;20483;-37
2023/04/13 08:56:23;;;;;;;4.65;1.13;;;11.50;99.90;;;;;;5054264;28;20021;-38
2023/04/13 08:58:55;;;;;;;3.83;1.02;;;11.50;99.90;;;;;;5054304;28;20060;-37
2023/04/13 09:01:22;;;;;;;4.20;0.98;;;11.50;99.90;;;;;;5054554;28;20025;-35
2023/04/13 09:03:53;;;;;;;7.90;1.52;;;11.50;99.90;;;;;;5054809;28;20029;-37
2023/04/13 09:06:25;;;;;;;5.30;0.93;;;11.50;99.90;;;;;;5053353;28;20059;-36
2023/04/13 09:08:55;;;;;;;4.97;1.00;;;11.50;99.90;;;;;;5053224;28;20036;-38
2023/04/13 09:11:21;;;;;;;4.97;1.33;;;11.50;99.90;;;;;;5053056;28;20032;-39
2023/04/13 09:13:49;;;;;;;4.88;1.27;;;11.50;99.90;;;;;;5054458;28;20017;-39
2023/04/13 09:16:15;;;;;;;2.97;0.98;;;11.50;99.90;;;;;;5054198;28;20639;-36
2023/04/13 09:18:51;;;;;;;2.50;0.98;;;11.50;99.90;;;;;;5052264;28;20025;-36
2023/04/13 09:21:17;;;;;;;5.60;1.10;;;11.60;99.90;;;;;;5052634;28;20057;-36
2023/04/13 09:23:53;;;;;;;5.45;1.23;;;11.60;99.90;;;;;;5051621;28;20057;-37
2023/04/13 09:26:19;;;;;;;4.38;0.98;;;11.50;99.90;;;;;;5053179;28;20029;-35
2023/04/13 09:28:49;;;;;;;4.68;1.20;;;11.60;99.90;;;;;;5054160;28;20028;-37
2023/04/13 09:31:15;;;;;;;5.68;1.00;;;11.60;99.90;;;;;;5054388;28;20032;-36
2023/04/13 09:33:48;;;;;;;3.95;0.98;;;11.60;99.90;;;;;;5052794;28;20021;-35
2023/04/13 09:36:17;;;;;;;5.05;1.15;;;11.60;99.90;;;;;;5054904;28;20036;-38
2023/04/13 09:38:53;;;;;;;4.57;1.13;;;11.60;99.90;;;;;;5053707;28;20052;-38
2023/04/13 09:41:36;;;;;;;5.30;1.20;;;11.60;99.90;;;;;;5052514;28;20499;-39
2023/04/13 09:44:33;;;;;;;6.22;1.02;;;11.60;99.90;;;;;;5053804;28;20063;-37
2023/04/13 09:47:00;;;;;;;4.93;1.30;;;11.60;99.90;;;;;;5053694;28;20433;-35
2023/04/13 09:49:39;;;;;;;5.32;1.13;;;11.60;99.90;;;;;;5052773;28;20036;-36
2023/04/13 09:52:25;;;;;;;5.05;1.00;;;11.60;99.90;;;;;;5053807;28;20060;-38
2023/04/13 09:54:52;;;;;;;3.42;1.10;;;11.60;99.90;;;;;;5052942;28;20040;-35
2023/04/13 09:57:31;;;;;;;3.67;0.95;;;11.60;99.90;;;;;;5052328;28;20093;-38
2023/04/13 09:59:59;;;;;;;6.13;1.40;;;11.60;99.90;;;;;;5053007;28;20029;-37
2023/04/13 10:02:26;;;;;;;4.28;1.30;;;11.60;99.90;;;;;;5053260;28;20033;-37
2023/04/13 10:04:52;;;;;;;4.85;1.10;;;11.60;99.90;;;;;;5053352;28;20040;-38
2023/04/13 10:07:19;;;;;;;7.18;1.55;;;11.60;99.90;;;;;;5051861;28;20059;-38
2023/04/13 10:09:45;;;;;;;4.28;1.25;;;11.60;99.90;;;;;;5052860;28;20025;-38
2023/04/13 10:12:15;;;;;;;6.47;1.42;;;11.60;99.90;;;;;;5052565;28;20028;-36
2023/04/13 10:14:44;;;;;;;7.72;1.15;;;11.60;99.90;;;;;;5052524;28;20059;-38
2023/04/13 10:17:31;;;;;;;5.55;1.23;;;11.60;99.90;;;;;;5053102;28;20022;-37
2023/04/13 10:20:06;;;;;;;6.10;1.45;;;11.60;99.90;;;;;;5052479;28;20108;-37
2023/04/13 10:22:36;;;;;;;4.97;1.35;;;11.60;99.90;;;;;;5052573;28;20506;-36
2023/04/13 10:25:05;;;;;;;6.28;1.40;;;11.60;99.90;;;;;;5051915;28;20036;-36
2023/04/13 10:27:31;;;;;;;7.70;1.80;;;11.50;99.90;;;;;;5052007;28;20391;-37
2023/04/13 10:29:59;;;;;;;5.07;1.65;;;11.60;99.90;;;;;;5052021;28;20024;-36
2023/04/13 10:32:26;;;;;;;5.68;1.33;;;11.60;99.90;;;;;;5051673;28;20476;-36
2023/04/13 10:34:53;;;;;;;4.65;1.17;;;11.60;99.90;;;;;;5052369;28;20116;-38
2023/04/13 10:37:21;;;;;;;5.47;1.35;;;11.60;99.90;;;;;;5052494;28;20383;-36
2023/04/13 10:39:48;;;;;;;4.63;1.52;;;11.60;99.90;;;;;;5052688;28;20021;-36
2023/04/13 10:42:15;;;;;;;5.88;1.52;;;11.60;99.90;;;;;;5052664;28;20127;-36
2023/04/13 10:44:48;;;;;;;5.38;1.38;;;11.60;99.90;;;;;;5053144;28;20029;-39
2023/04/13 10:47:16;;;;;;;5.00;1.35;;;11.60;99.90;;;;;;5051384;28;20021;-36
2023/04/13 10:49:43;;;;;;;3.95;1.50;;;11.70;99.90;;;;;;5052207;28;20326;-36
2023/04/13 10:52:10;;;;;;;5.57;1.60;;;11.60;99.90;;;;;;5052403;28;20021;-38
2023/04/13 10:54:36;;;;;;;6.50;1.38;;;11.70;99.90;;;;;;5052881;28;20090;-39
2023/04/13 10:57:05;;;;;;;5.32;1.90;;;11.70;99.90;;;;;;5051024;28;20383;-37
2023/04/13 10:59:43;;;;;;;3.20;1.33;;;11.70;99.90;;;;;;5052723;28;20107;-37
2023/04/13 11:02:13;;;;;;;6.05;1.70;;;11.70;99.90;;;;;;5052123;28;20474;-38
2023/04/13 11:04:40;;;;;;;5.25;1.48;;;11.70;99.90;;;;;;5051138;28;20029;-37
2023/04/13 11:07:16;;;;;;;5.07;1.30;;;11.70;99.90;;;;;;5051295;28;20029;-36
2023/04/13 11:09:44;;;;;;;6.50;1.58;;;11.70;99.90;;;;;;5051187;28;20033;-35
2023/04/13 11:12:16;;;;;;;14.07;1.88;;;11.60;99.90;;;;;;5050975;28;20013;-36
2023/04/13 11:14:46;;;;;;;9.23;1.85;;;11.60;99.90;;;;;;5051033;28;20441;-36
2023/04/13 11:17:13;;;;;;;6.93;1.38;;;11.50;99.90;;;;;;5050492;28;20025;-34
2023/04/13 11:19:47;;;;;;;4.43;1.40;;;11.50;99.90;;;;;;5050799;28;20116;-36
2023/04/13 11:22:21;;;;;;;4.95;1.40;;;11.40;99.90;;;;;;5052085;28;20033;-35
2023/04/13 11:24:47;;;;;;;4.38;1.15;;;11.40;99.90;;;;;;5051133;28;20121;-37
2023/04/13 11:27:20;;;;;;;8.25;1.80;;;11.40;99.90;;;;;;5051459;28;20028;-38
2023/04/13 11:30:06;;;;;;;6.13;1.65;;;11.40;99.90;;;;;;5051839;28;20060;-36
2023/04/13 11:32:33;;;;;;;5.35;1.40;;;11.40;99.90;;;;;;5051708;28;20491;-36
2023/04/13 11:35:08;;;;;;;5.45;0.93;;;11.40;99.90;;;;;;5051742;28;20075;-36
2023/04/13 11:37:47;;;;;;;6.22;1.65;;;11.40;99.90;;;;;;5050346;28;20032;-35
2023/04/13 11:40:19;;;;;;;3.95;1.20;;;11.40;99.90;;;;;;5052497;28;20060;-37
2023/04/13 11:42:46;;;;;;;4.63;1.30;;;11.40;99.90;;;;;;5051383;28;20021;-36
2023/04/13 11:45:14;;;;;;;3.97;1.33;;;11.40;99.90;;;;;;5054873;28;20090;-37
2023/04/13 11:47:40;;;;;;;2.90;1.27;;;11.50;99.90;;;;;;5055807;28;20021;-40
2023/04/13 11:50:06;;;;;;;6.05;1.27;;;11.50;99.90;;;;;;5056998;28;20029;-35
2023/04/13 11:52:34;;;;;;;4.82;1.52;;;11.60;99.90;;;;;;5055014;28;20025;-35
2023/04/13 11:55:05;;;;;;;5.53;1.33;;;11.60;99.90;;;;;;5055420;28;20045;-37
2023/04/13 11:57:32;;;;;;;2.95;1.15;;;11.60;99.90;;;;;;5055497;28;20511;-35
2023/04/13 11:59:58;;;;;;;3.63;1.17;;;11.60;99.90;;;;;;5055133;28;20029;-36
2023/04/13 12:02:27;;;;;;;5.03;1.30;;;11.60;99.90;;;;;;5055249;28;20088;-35
2023/04/13 12:04:54;;;;;;;5.05;1.20;;;11.60;99.90;;;;;;5055873;28;20025;-35
2023/04/13 12:07:20;;;;;;;3.03;1.20;;;11.60;99.90;;;;;;5055686;28;20020;-37
2023/04/13 12:09:47;;;;;;;5.80;1.30;;;11.70;99.90;;;;;;5054778;28;20052;-35
2023/04/13 12:12:25;;;;;;;3.63;1.10;;;11.70;99.90;;;;;;5054621;28;20382;-35
2023/04/13 12:14:56;;;;;;;4.55;1.15;;;11.70;99.90;;;;;;5055016;28;20028;-35
2023/04/13 12:17:28;;;;;;;4.28;1.45;;;11.70;99.90;;;;;;5055250;28;20025;-35
2023/04/13 12:19:55;;;;;;;5.90;1.20;;;11.70;99.90;;;;;;5054854;28;20398;-34
2023/04/13 12:22:21;;;;;;;3.05;1.10;;;11.70;99.90;;;;;;5054902;28;20029;-36
2023/04/13 12:24:46;;;;;;;2.05;0.80;;;11.80;99.90;;;;;;5053947;28;20025;-36
2023/04/13 12:27:12;;;;;;;3.53;1.20;;;11.80;99.90;;;;;;5053379;28;20482;-37
2023/04/13 12:29:39;;;;;;;4.72;1.20;;;11.80;99.90;;;;;;5055792;28;20031;-37
2023/04/13 12:32:15;;;;;;;2.85;1.00;;;11.80;99.90;;;;;;5053216;28;20081;-34
2023/04/13 12:34:42;;;;;;;2.97;0.90;;;11.80;99.90;;;;;;5055635;28;20025;-34
2023/04/13 12:37:09;;;;;;;3.00;1.20;;;11.80;99.90;;;;;;5054716;28;20021;-40
2023/04/13 12:39:36;;;;;;;1.92;0.80;;;11.90;99.90;;;;;;5054123;28;20021;-37
2023/04/13 12:42:01;;;;;;;3.20;0.85;;;11.80;99.90;;;;;;5054361;28;20024;-35
2023/04/13 12:44:27;;;;;;;3.08;1.00;;;11.90;99.90;;;;;;5054288;28;20075;-36
2023/04/13 12:46:52;;;;;;;2.60;0.80;;;11.90;99.90;;;;;;5054852;28;20028;-37
2023/04/13 12:49:18;;;;;;;2.25;0.68;;;11.90;99.90;;;;;;5054367;28;20017;-35
2023/04/13 12:51:44;;;;;;;2.70;0.90;;;11.90;99.90;;;;;;5055090;28;20035;-38